sensor_id;sensor_type;location;lat;lon;timestamp;temperature;humidity
39751;DHT22;37579;51.074;17.004;2024-01-10T00:01:42;24.00;78.80
39751;DHT22;37579;51.074;17.004;2024-01-10T00:04:08;23.90;78.90
39751;DHT22;37579;51.074;17.004;2024-01-10T00:06:34;23.90;78.80
39751;DHT22;37579;51.074;17.004;2024-01-10T00:08:59;23.90;78.80
39751;DHT22;37579;51.074;17.004;2024-01-10T00:11:25;23.90;78.80
39751;DHT22;37579;51.074;17.004;2024-01-10T00:13:51;23.90;78.90
39751;DHT22;37579;51.074;17.004;2024-01-10T00:16:17;24.00;78.80
39751;DHT22;37579;51.074;17.004;2024-01-10T00:18:43;24.00;78.70
39751;DHT22;37579;51.074;17.004;2024-01-10T00:21:10;23.90;78.70
39751;DHT22;37579;51.074;17.004;2024-01-10T00:23:36;23.90;78.60
39751;DHT22;37579;51.074;17.004;2024-01-10T00:26:01;23.90;78.60
39751;DHT22;37579;51.074;17.004;2024-01-10T00:28:27;23.90;78.20
39751;DHT22;37579;51.074;17.004;2024-01-10T00:30:53;23.90;78.00
39751;DHT22;37579;51.074;17.004;2024-01-10T00:33:18;24.00;78.00
39751;DHT22;37579;51.074;17.004;2024-01-10T00:35:44;24.00;78.30
39751;DHT22;37579;51.074;17.004;2024-01-10T00:38:10;23.90;77.80
39751;DHT22;37579;51.074;17.004;2024-01-10T00:40:36;24.00;77.60
39751;DHT22;37579;51.074;17.004;2024-01-10T00:43:02;24.00;77.60
39751;DHT22;37579;51.074;17.004;2024-01-10T00:45:28;23.90;77.50
39751;DHT22;37579;51.074;17.004;2024-01-10T00:47:53;24.00;77.50
39751;DHT22;37579;51.074;17.004;2024-01-10T00:50:19;24.00;77.40
39751;DHT22;37579;51.074;17.004;2024-01-10T00:52:45;24.00;77.50
39751;DHT22;37579;51.074;17.004;2024-01-10T00:55:11;24.10;77.50
39751;DHT22;37579;51.074;17.004;2024-01-10T00:57:37;24.00;77.50
39751;DHT22;37579;51.074;17.004;2024-01-10T01:00:13;24.00;77.60
39751;DHT22;37579;51.074;17.004;2024-01-10T01:02:38;23.90;77.40
39751;DHT22;37579;51.074;17.004;2024-01-10T01:05:07;23.90;77.50
39751;DHT22;37579;51.074;17.004;2024-01-10T01:07:33;24.00;77.50
39751;DHT22;37579;51.074;17.004;2024-01-10T01:09:59;24.10;77.20
39751;DHT22;37579;51.074;17.004;2024-01-10T01:12:25;24.20;77.20
39751;DHT22;37579;51.074;17.004;2024-01-10T01:14:51;24.30;77.20
39751;DHT22;37579;51.074;17.004;2024-01-10T01:17:17;24.20;77.10
39751;DHT22;37579;51.074;17.004;2024-01-10T01:19:43;24.30;77.10
39751;DHT22;37579;51.074;17.004;2024-01-10T01:22:08;24.30;77.10
39751;DHT22;37579;51.074;17.004;2024-01-10T01:24:34;24.20;77.00
39751;DHT22;37579;51.074;17.004;2024-01-10T01:27:00;24.20;76.90
39751;DHT22;37579;51.074;17.004;2024-01-10T01:29:28;24.20;76.90
39751;DHT22;37579;51.074;17.004;2024-01-10T01:31:54;24.20;76.90
39751;DHT22;37579;51.074;17.004;2024-01-10T01:34:20;24.20;77.00
39751;DHT22;37579;51.074;17.004;2024-01-10T01:36:46;24.20;77.00
39751;DHT22;37579;51.074;17.004;2024-01-10T01:39:12;24.20;76.80
39751;DHT22;37579;51.074;17.004;2024-01-10T01:41:40;24.20;76.90
39751;DHT22;37579;51.074;17.004;2024-01-10T01:44:06;24.20;77.20
39751;DHT22;37579;51.074;17.004;2024-01-10T01:46:32;24.10;77.50
39751;DHT22;37579;51.074;17.004;2024-01-10T01:48:59;24.10;77.80
39751;DHT22;37579;51.074;17.004;2024-01-10T01:51:26;24.10;78.20
39751;DHT22;37579;51.074;17.004;2024-01-10T01:53:52;24.10;78.30
39751;DHT22;37579;51.074;17.004;2024-01-10T01:56:19;24.10;78.40
39751;DHT22;37579;51.074;17.004;2024-01-10T01:58:45;24.10;78.40
39751;DHT22;37579;51.074;17.004;2024-01-10T02:01:12;24.10;78.50
39751;DHT22;37579;51.074;17.004;2024-01-10T02:03:38;24.10;78.60
39751;DHT22;37579;51.074;17.004;2024-01-10T02:06:04;24.00;78.70
39751;DHT22;37579;51.074;17.004;2024-01-10T02:08:34;23.90;79.40
39751;DHT22;37579;51.074;17.004;2024-01-10T02:11:01;24.00;79.00
39751;DHT22;37579;51.074;17.004;2024-01-10T02:13:28;23.90;78.90
39751;DHT22;37579;51.074;17.004;2024-01-10T02:15:54;23.90;79.10
39751;DHT22;37579;51.074;17.004;2024-01-10T02:18:20;23.90;79.10
39751;DHT22;37579;51.074;17.004;2024-01-10T02:20:46;23.80;79.00
39751;DHT22;37579;51.074;17.004;2024-01-10T02:23:12;23.80;79.20
39751;DHT22;37579;51.074;17.004;2024-01-10T02:25:40;23.80;79.20
39751;DHT22;37579;51.074;17.004;2024-01-10T02:28:06;23.70;79.20
39751;DHT22;37579;51.074;17.004;2024-01-10T02:30:33;23.80;79.20
39751;DHT22;37579;51.074;17.004;2024-01-10T02:32:58;23.80;79.20
39751;DHT22;37579;51.074;17.004;2024-01-10T02:35:24;23.70;79.10
39751;DHT22;37579;51.074;17.004;2024-01-10T02:37:50;23.70;79.10
39751;DHT22;37579;51.074;17.004;2024-01-10T02:40:17;23.70;79.10
39751;DHT22;37579;51.074;17.004;2024-01-10T02:42:43;23.70;79.30
39751;DHT22;37579;51.074;17.004;2024-01-10T02:45:09;23.70;79.30
39751;DHT22;37579;51.074;17.004;2024-01-10T02:47:35;23.70;79.40
39751;DHT22;37579;51.074;17.004;2024-01-10T02:50:03;23.80;79.30
39751;DHT22;37579;51.074;17.004;2024-01-10T02:52:29;23.90;79.10
39751;DHT22;37579;51.074;17.004;2024-01-10T02:54:55;24.00;79.10
39751;DHT22;37579;51.074;17.004;2024-01-10T03:36:36;24.00;64.40
39751;DHT22;37579;51.074;17.004;2024-01-10T03:39:02;24.00;65.00
39751;DHT22;37579;51.074;17.004;2024-01-10T03:41:28;24.00;65.00
39751;DHT22;37579;51.074;17.004;2024-01-10T03:43:53;23.90;65.00
39751;DHT22;37579;51.074;17.004;2024-01-10T03:46:20;23.90;65.10
39751;DHT22;37579;51.074;17.004;2024-01-10T03:48:45;23.80;65.00
39751;DHT22;37579;51.074;17.004;2024-01-10T03:51:18;23.80;65.70
39751;DHT22;37579;51.074;17.004;2024-01-10T03:53:47;23.80;65.10
39751;DHT22;37579;51.074;17.004;2024-01-10T03:56:14;23.80;65.10
39751;DHT22;37579;51.074;17.004;2024-01-10T03:58:40;23.80;65.20
39751;DHT22;37579;51.074;17.004;2024-01-10T04:01:07;23.70;65.20
39751;DHT22;37579;51.074;17.004;2024-01-10T04:03:33;23.70;65.20
39751;DHT22;37579;51.074;17.004;2024-01-10T04:06:00;23.70;65.30
39751;DHT22;37579;51.074;17.004;2024-01-10T04:08:26;23.70;65.30
39751;DHT22;37579;51.074;17.004;2024-01-10T04:10:52;23.70;65.20
39751;DHT22;37579;51.074;17.004;2024-01-10T04:13:17;23.70;65.20
39751;DHT22;37579;51.074;17.004;2024-01-10T04:15:43;23.70;65.20
39751;DHT22;37579;51.074;17.004;2024-01-10T04:18:09;23.70;65.20
39751;DHT22;37579;51.074;17.004;2024-01-10T04:20:34;23.60;65.20
39751;DHT22;37579;51.074;17.004;2024-01-10T04:23:00;23.60;65.40
39751;DHT22;37579;51.074;17.004;2024-01-10T04:25:26;23.60;65.30
39751;DHT22;37579;51.074;17.004;2024-01-10T04:27:52;23.60;65.40
39751;DHT22;37579;51.074;17.004;2024-01-10T04:30:17;23.60;65.40
39751;DHT22;37579;51.074;17.004;2024-01-10T04:32:43;23.60;65.40
39751;DHT22;37579;51.074;17.004;2024-01-10T04:35:09;23.60;65.50
39751;DHT22;37579;51.074;17.004;2024-01-10T04:37:35;23.50;65.50
39751;DHT22;37579;51.074;17.004;2024-01-10T04:40:01;23.50;65.60
39751;DHT22;37579;51.074;17.004;2024-01-10T04:42:27;23.60;65.40
39751;DHT22;37579;51.074;17.004;2024-01-10T04:44:52;23.80;65.10
39751;DHT22;37579;51.074;17.004;2024-01-10T04:47:18;23.80;65.00
39751;DHT22;37579;51.074;17.004;2024-01-10T04:49:44;23.90;65.10
39751;DHT22;37579;51.074;17.004;2024-01-10T04:52:10;23.90;65.10
39751;DHT22;37579;51.074;17.004;2024-01-10T04:54:35;23.90;65.20
39751;DHT22;37579;51.074;17.004;2024-01-10T04:57:01;23.90;65.20
39751;DHT22;37579;51.074;17.004;2024-01-10T04:59:27;23.90;65.30
39751;DHT22;37579;51.074;17.004;2024-01-10T05:01:53;23.90;65.20
39751;DHT22;37579;51.074;17.004;2024-01-10T05:04:18;23.90;65.30
39751;DHT22;37579;51.074;17.004;2024-01-10T05:06:44;24.00;65.40
39751;DHT22;37579;51.074;17.004;2024-01-10T05:09:10;24.00;65.30
39751;DHT22;37579;51.074;17.004;2024-01-10T05:11:36;24.00;65.50
39751;DHT22;37579;51.074;17.004;2024-01-10T05:14:02;24.00;65.60
39751;DHT22;37579;51.074;17.004;2024-01-10T05:16:28;24.00;65.70
39751;DHT22;37579;51.074;17.004;2024-01-10T05:18:54;24.10;65.70
39751;DHT22;37579;51.074;17.004;2024-01-10T05:21:20;24.00;66.00
39751;DHT22;37579;51.074;17.004;2024-01-10T05:23:46;24.00;66.10
39751;DHT22;37579;51.074;17.004;2024-01-10T05:26:12;24.00;66.30
39751;DHT22;37579;51.074;17.004;2024-01-10T05:28:38;23.90;66.30
39751;DHT22;37579;51.074;17.004;2024-01-10T05:31:04;23.80;66.60
39751;DHT22;37579;51.074;17.004;2024-01-10T05:33:30;23.80;66.70
39751;DHT22;37579;51.074;17.004;2024-01-10T05:35:55;23.80;66.70
39751;DHT22;37579;51.074;17.004;2024-01-10T05:38:21;23.80;67.00
39751;DHT22;37579;51.074;17.004;2024-01-10T05:40:47;23.80;67.20
39751;DHT22;37579;51.074;17.004;2024-01-10T05:43:12;23.80;67.20
39751;DHT22;37579;51.074;17.004;2024-01-10T05:45:38;23.70;67.40
39751;DHT22;37579;51.074;17.004;2024-01-10T05:48:04;23.60;67.70
39751;DHT22;37579;51.074;17.004;2024-01-10T05:50:32;23.60;67.80
39751;DHT22;37579;51.074;17.004;2024-01-10T05:52:57;23.60;67.90
39751;DHT22;37579;51.074;17.004;2024-01-10T05:55:23;23.50;67.90
39751;DHT22;37579;51.074;17.004;2024-01-10T05:57:49;23.60;68.10
39751;DHT22;37579;51.074;17.004;2024-01-10T06:00:15;23.60;68.10
39751;DHT22;37579;51.074;17.004;2024-01-10T06:02:42;23.60;68.20
39751;DHT22;37579;51.074;17.004;2024-01-10T06:05:11;23.60;68.30
39751;DHT22;37579;51.074;17.004;2024-01-10T06:07:38;23.60;68.50
39751;DHT22;37579;51.074;17.004;2024-01-10T06:10:05;23.50;68.70
39751;DHT22;37579;51.074;17.004;2024-01-10T06:12:31;23.50;69.10
39751;DHT22;37579;51.074;17.004;2024-01-10T06:14:57;23.60;69.60
39751;DHT22;37579;51.074;17.004;2024-01-10T06:17:23;23.60;70.10
39751;DHT22;37579;51.074;17.004;2024-01-10T06:19:50;23.60;72.00
39751;DHT22;37579;51.074;17.004;2024-01-10T06:22:16;23.50;76.10
39751;DHT22;37579;51.074;17.004;2024-01-10T06:24:45;23.50;77.70
39751;DHT22;37579;51.074;17.004;2024-01-10T06:27:11;23.60;78.00
39751;DHT22;37579;51.074;17.004;2024-01-10T06:29:37;23.60;78.20
39751;DHT22;37579;51.074;17.004;2024-01-10T06:32:05;23.60;78.40
39751;DHT22;37579;51.074;17.004;2024-01-10T06:34:32;23.60;78.50
39751;DHT22;37579;51.074;17.004;2024-01-10T06:36:59;23.60;78.60
39751;DHT22;37579;51.074;17.004;2024-01-10T06:39:25;23.60;78.80
39751;DHT22;37579;51.074;17.004;2024-01-10T06:41:51;23.50;78.90
39751;DHT22;37579;51.074;17.004;2024-01-10T06:44:17;23.60;78.90
39751;DHT22;37579;51.074;17.004;2024-01-10T06:46:45;23.70;79.10
39751;DHT22;37579;51.074;17.004;2024-01-10T10:00:48;24.30;48.80
39751;DHT22;37579;51.074;17.004;2024-01-10T10:03:16;24.80;46.70
39751;DHT22;37579;51.074;17.004;2024-01-10T10:05:42;24.80;47.10
39751;DHT22;37579;51.074;17.004;2024-01-10T10:08:12;24.90;46.80
39751;DHT22;37579;51.074;17.004;2024-01-10T10:10:38;24.90;46.40
39751;DHT22;37579;51.074;17.004;2024-01-10T10:13:10;24.90;46.20
39751;DHT22;37579;51.074;17.004;2024-01-10T10:18:24;24.90;45.50
39751;DHT22;37579;51.074;17.004;2024-01-10T10:21:06;24.90;45.90
39751;DHT22;37579;51.074;17.004;2024-01-10T10:23:33;24.90;45.80
39751;DHT22;37579;51.074;17.004;2024-01-10T10:26:10;24.90;45.80
39751;DHT22;37579;51.074;17.004;2024-01-10T10:28:36;24.90;45.80
39751;DHT22;37579;51.074;17.004;2024-01-10T10:31:02;24.80;45.90
39751;DHT22;37579;51.074;17.004;2024-01-10T10:33:28;24.80;46.10
39751;DHT22;37579;51.074;17.004;2024-01-10T10:35:57;24.70;46.20
39751;DHT22;37579;51.074;17.004;2024-01-10T10:38:23;24.90;50.70
39751;DHT22;37579;51.074;17.004;2024-01-10T10:40:49;24.80;46.30
39751;DHT22;37579;51.074;17.004;2024-01-10T10:43:18;24.70;46.20
39751;DHT22;37579;51.074;17.004;2024-01-10T10:45:49;24.80;46.30
39751;DHT22;37579;51.074;17.004;2024-01-10T10:48:19;24.80;46.30
39751;DHT22;37579;51.074;17.004;2024-01-10T10:53:39;24.80;46.10
39751;DHT22;37579;51.074;17.004;2024-01-10T10:56:07;24.90;46.00
39751;DHT22;37579;51.074;17.004;2024-01-10T10:58:39;24.90;45.90
39751;DHT22;37579;51.074;17.004;2024-01-10T11:01:06;24.90;45.90
39751;DHT22;37579;51.074;17.004;2024-01-10T11:03:35;24.90;45.70
39751;DHT22;37579;51.074;17.004;2024-01-10T11:06:03;25.00;45.70
39751;DHT22;37579;51.074;17.004;2024-01-10T11:08:36;25.00;45.70
39751;DHT22;37579;51.074;17.004;2024-01-10T11:11:05;25.00;45.60
39751;DHT22;37579;51.074;17.004;2024-01-10T11:24:32;25.00;45.60
39751;DHT22;37579;51.074;17.004;2024-01-10T11:27:10;24.90;45.60
39751;DHT22;37579;51.074;17.004;2024-01-10T11:29:38;24.90;45.80
39751;DHT22;37579;51.074;17.004;2024-01-10T11:32:06;24.90;45.80
39751;DHT22;37579;51.074;17.004;2024-01-10T11:34:31;24.90;45.80
39751;DHT22;37579;51.074;17.004;2024-01-10T11:37:10;24.90;46.50
39751;DHT22;37579;51.074;17.004;2024-01-10T11:39:36;24.80;45.80
39751;DHT22;37579;51.074;17.004;2024-01-10T11:42:03;24.80;45.80
39751;DHT22;37579;51.074;17.004;2024-01-10T11:44:29;24.80;46.00
39751;DHT22;37579;51.074;17.004;2024-01-10T11:46:57;24.70;46.10
39751;DHT22;37579;51.074;17.004;2024-01-10T11:49:23;24.70;46.20
39751;DHT22;37579;51.074;17.004;2024-01-10T11:51:56;24.70;46.30
39751;DHT22;37579;51.074;17.004;2024-01-10T11:54:43;24.60;46.40
39751;DHT22;37579;51.074;17.004;2024-01-10T11:57:21;24.60;46.60
39751;DHT22;37579;51.074;17.004;2024-01-10T11:59:50;24.50;46.70
39751;DHT22;37579;51.074;17.004;2024-01-10T12:02:17;24.40;46.80
39751;DHT22;37579;51.074;17.004;2024-01-10T12:04:43;24.50;47.00
39751;DHT22;37579;51.074;17.004;2024-01-10T12:07:09;24.50;46.90
39751;DHT22;37579;51.074;17.004;2024-01-10T12:09:35;24.40;46.90
39751;DHT22;37579;51.074;17.004;2024-01-10T12:12:03;24.40;47.10
39751;DHT22;37579;51.074;17.004;2024-01-10T12:14:30;24.40;47.00
39751;DHT22;37579;51.074;17.004;2024-01-10T12:16:59;24.40;47.00
39751;DHT22;37579;51.074;17.004;2024-01-10T12:19:25;24.40;47.00
39751;DHT22;37579;51.074;17.004;2024-01-10T12:21:52;24.30;47.30
39751;DHT22;37579;51.074;17.004;2024-01-10T12:24:18;24.30;47.30
39751;DHT22;37579;51.074;17.004;2024-01-10T12:26:46;24.30;47.40
39751;DHT22;37579;51.074;17.004;2024-01-10T12:29:12;24.30;47.50
39751;DHT22;37579;51.074;17.004;2024-01-10T12:31:38;24.30;47.60
39751;DHT22;37579;51.074;17.004;2024-01-10T12:34:09;24.20;47.60
39751;DHT22;37579;51.074;17.004;2024-01-10T12:36:36;24.30;47.70
39751;DHT22;37579;51.074;17.004;2024-01-10T12:39:02;24.20;47.70
39751;DHT22;37579;51.074;17.004;2024-01-10T12:41:28;24.20;47.70
39751;DHT22;37579;51.074;17.004;2024-01-10T12:43:55;24.20;47.70
39751;DHT22;37579;51.074;17.004;2024-01-10T12:46:21;24.20;48.00
39751;DHT22;37579;51.074;17.004;2024-01-10T12:49:06;24.20;48.00
39751;DHT22;37579;51.074;17.004;2024-01-10T12:51:33;24.20;48.10
39751;DHT22;37579;51.074;17.004;2024-01-10T12:53:59;24.30;48.10
39751;DHT22;37579;51.074;17.004;2024-01-10T12:56:26;24.30;48.20
39751;DHT22;37579;51.074;17.004;2024-01-10T12:58:52;24.30;48.40
39751;DHT22;37579;51.074;17.004;2024-01-10T13:01:18;24.30;48.40
39751;DHT22;37579;51.074;17.004;2024-01-10T13:03:44;24.30;48.40
39751;DHT22;37579;51.074;17.004;2024-01-10T13:06:10;24.30;48.50
39751;DHT22;37579;51.074;17.004;2024-01-10T13:08:36;24.40;48.70
39751;DHT22;37579;51.074;17.004;2024-01-10T13:11:03;24.30;48.90
39751;DHT22;37579;51.074;17.004;2024-01-10T13:13:37;24.20;49.00
39751;DHT22;37579;51.074;17.004;2024-01-10T13:16:03;24.30;49.10
39751;DHT22;37579;51.074;17.004;2024-01-10T13:18:29;24.30;49.10
39751;DHT22;37579;51.074;17.004;2024-01-10T13:20:56;24.40;49.20
39751;DHT22;37579;51.074;17.004;2024-01-10T13:23:22;24.50;49.30
39751;DHT22;37579;51.074;17.004;2024-01-10T13:25:49;24.50;49.40
39751;DHT22;37579;51.074;17.004;2024-01-10T13:28:15;24.60;49.20
39751;DHT22;37579;51.074;17.004;2024-01-10T13:30:41;24.60;49.30
39751;DHT22;37579;51.074;17.004;2024-01-10T13:33:09;24.60;49.30
39751;DHT22;37579;51.074;17.004;2024-01-10T13:35:36;24.60;49.40
39751;DHT22;37579;51.074;17.004;2024-01-10T13:38:02;24.60;49.40
39751;DHT22;37579;51.074;17.004;2024-01-10T13:40:28;24.60;49.30
39751;DHT22;37579;51.074;17.004;2024-01-10T13:42:54;24.60;49.20
39751;DHT22;37579;51.074;17.004;2024-01-10T13:45:20;24.60;49.30
39751;DHT22;37579;51.074;17.004;2024-01-10T13:47:46;24.50;49.20
39751;DHT22;37579;51.074;17.004;2024-01-10T13:50:12;24.50;49.30
39751;DHT22;37579;51.074;17.004;2024-01-10T13:52:38;24.50;49.40
39751;DHT22;37579;51.074;17.004;2024-01-10T13:55:04;24.50;49.30
39751;DHT22;37579;51.074;17.004;2024-01-10T13:57:31;24.40;49.40
39751;DHT22;37579;51.074;17.004;2024-01-10T14:00:22;24.40;49.60
39751;DHT22;37579;51.074;17.004;2024-01-10T14:03:11;24.40;49.70
39751;DHT22;37579;51.074;17.004;2024-01-10T14:05:37;24.40;49.70
39751;DHT22;37579;51.074;17.004;2024-01-10T14:08:03;24.40;49.60
39751;DHT22;37579;51.074;17.004;2024-01-10T14:10:29;24.40;49.70
39751;DHT22;37579;51.074;17.004;2024-01-10T14:12:55;24.30;49.80
39751;DHT22;37579;51.074;17.004;2024-01-10T14:15:20;24.40;50.10
39751;DHT22;37579;51.074;17.004;2024-01-10T14:17:46;24.30;50.20
39751;DHT22;37579;51.074;17.004;2024-01-10T14:20:12;24.30;50.20
39751;DHT22;37579;51.074;17.004;2024-01-10T14:22:38;24.30;50.40
39751;DHT22;37579;51.074;17.004;2024-01-10T14:25:05;24.20;50.20
39751;DHT22;37579;51.074;17.004;2024-01-10T14:27:31;24.20;50.50
39751;DHT22;37579;51.074;17.004;2024-01-10T14:29:57;24.20;50.20
39751;DHT22;37579;51.074;17.004;2024-01-10T14:32:24;24.20;50.10
39751;DHT22;37579;51.074;17.004;2024-01-10T14:34:50;24.20;50.00
39751;DHT22;37579;51.074;17.004;2024-01-10T14:37:16;24.20;49.80
39751;DHT22;37579;51.074;17.004;2024-01-10T14:39:41;24.20;49.40
39751;DHT22;37579;51.074;17.004;2024-01-10T14:42:07;24.20;49.90
39751;DHT22;37579;51.074;17.004;2024-01-10T14:44:35;24.10;49.20
39751;DHT22;37579;51.074;17.004;2024-01-10T14:47:01;24.10;49.10
39751;DHT22;37579;51.074;17.004;2024-01-10T14:49:26;24.20;48.80
39751;DHT22;37579;51.074;17.004;2024-01-10T14:51:52;24.10;48.70
39751;DHT22;37579;51.074;17.004;2024-01-10T14:54:18;24.20;48.40
39751;DHT22;37579;51.074;17.004;2024-01-10T14:56:46;24.20;48.20
39751;DHT22;37579;51.074;17.004;2024-01-10T14:59:14;24.20;48.20
39751;DHT22;37579;51.074;17.004;2024-01-10T15:01:46;24.20;48.30
39751;DHT22;37579;51.074;17.004;2024-01-10T15:04:13;24.20;48.50
39751;DHT22;37579;51.074;17.004;2024-01-10T15:06:45;24.20;48.40
39751;DHT22;37579;51.074;17.004;2024-01-10T15:09:12;24.20;48.40
39751;DHT22;37579;51.074;17.004;2024-01-10T15:11:39;24.20;48.30
39751;DHT22;37579;51.074;17.004;2024-01-10T15:14:05;24.20;48.30
39751;DHT22;37579;51.074;17.004;2024-01-10T15:16:31;24.20;48.30
39751;DHT22;37579;51.074;17.004;2024-01-10T15:18:57;24.20;48.50
39751;DHT22;37579;51.074;17.004;2024-01-10T15:21:23;24.20;48.50
39751;DHT22;37579;51.074;17.004;2024-01-10T15:23:48;24.20;48.60
39751;DHT22;37579;51.074;17.004;2024-01-10T15:26:17;24.20;48.60
39751;DHT22;37579;51.074;17.004;2024-01-10T15:28:46;24.20;48.60
39751;DHT22;37579;51.074;17.004;2024-01-10T15:31:15;24.20;48.80
39751;DHT22;37579;51.074;17.004;2024-01-10T15:33:41;24.20;49.00
39751;DHT22;37579;51.074;17.004;2024-01-10T15:36:07;24.10;49.10
39751;DHT22;37579;51.074;17.004;2024-01-10T15:38:35;24.10;49.20
39751;DHT22;37579;51.074;17.004;2024-01-10T15:41:02;24.20;49.20
39751;DHT22;37579;51.074;17.004;2024-01-10T15:43:28;24.10;49.00
39751;DHT22;37579;51.074;17.004;2024-01-10T15:45:54;24.10;48.90
39751;DHT22;37579;51.074;17.004;2024-01-10T15:48:20;24.20;48.90
39751;DHT22;37579;51.074;17.004;2024-01-10T15:50:46;24.20;48.60
39751;DHT22;37579;51.074;17.004;2024-01-10T15:53:11;24.20;48.60
39751;DHT22;37579;51.074;17.004;2024-01-10T15:55:37;24.20;48.70
39751;DHT22;37579;51.074;17.004;2024-01-10T15:58:04;24.20;48.70
39751;DHT22;37579;51.074;17.004;2024-01-10T16:00:30;24.20;48.60
39751;DHT22;37579;51.074;17.004;2024-01-10T16:02:56;24.20;48.70
39751;DHT22;37579;51.074;17.004;2024-01-10T16:05:22;24.20;48.80
39751;DHT22;37579;51.074;17.004;2024-01-10T16:07:50;24.20;48.30
39751;DHT22;37579;51.074;17.004;2024-01-10T16:10:16;24.10;48.00
39751;DHT22;37579;51.074;17.004;2024-01-10T16:12:44;24.20;48.10
39751;DHT22;37579;51.074;17.004;2024-01-10T16:15:10;24.20;49.00
39751;DHT22;37579;51.074;17.004;2024-01-10T16:17:36;24.20;55.20
39751;DHT22;37579;51.074;17.004;2024-01-10T16:20:02;24.40;51.70
39751;DHT22;37579;51.074;17.004;2024-01-10T16:22:31;24.40;53.40
39751;DHT22;37579;51.074;17.004;2024-01-10T16:24:59;24.20;56.80
39751;DHT22;37579;51.074;17.004;2024-01-10T16:27:25;24.20;47.90
39751;DHT22;37579;51.074;17.004;2024-01-10T16:29:52;24.20;48.00
39751;DHT22;37579;51.074;17.004;2024-01-10T16:32:18;24.20;47.90
39751;DHT22;37579;51.074;17.004;2024-01-10T16:34:45;24.20;47.80
39751;DHT22;37579;51.074;17.004;2024-01-10T16:37:11;24.20;48.00
39751;DHT22;37579;51.074;17.004;2024-01-10T16:39:37;24.20;47.90
39751;DHT22;37579;51.074;17.004;2024-01-10T16:42:05;24.10;48.10
39751;DHT22;37579;51.074;17.004;2024-01-10T16:44:31;24.10;48.10
39751;DHT22;37579;51.074;17.004;2024-01-10T16:46:57;24.10;47.90
39751;DHT22;37579;51.074;17.004;2024-01-10T16:49:22;24.10;48.00
39751;DHT22;37579;51.074;17.004;2024-01-10T16:51:49;24.00;47.90
39751;DHT22;37579;51.074;17.004;2024-01-10T16:54:14;24.00;48.00
39751;DHT22;37579;51.074;17.004;2024-01-10T16:56:40;24.00;48.10
39751;DHT22;37579;51.074;17.004;2024-01-10T16:59:06;23.90;48.10
39751;DHT22;37579;51.074;17.004;2024-01-10T17:01:32;24.10;48.00
39751;DHT22;37579;51.074;17.004;2024-01-10T17:03:58;24.20;47.70
39751;DHT22;37579;51.074;17.004;2024-01-10T17:06:24;24.20;47.50
39751;DHT22;37579;51.074;17.004;2024-01-10T17:08:49;24.30;47.30
39751;DHT22;37579;51.074;17.004;2024-01-10T17:11:15;24.30;47.90
39751;DHT22;37579;51.074;17.004;2024-01-10T17:13:43;24.30;47.40
39751;DHT22;37579;51.074;17.004;2024-01-10T17:16:08;24.30;47.30
39751;DHT22;37579;51.074;17.004;2024-01-10T17:18:34;24.30;47.20
39751;DHT22;37579;51.074;17.004;2024-01-10T17:21:00;24.30;47.20
39751;DHT22;37579;51.074;17.004;2024-01-10T17:30:46;24.40;62.20
39751;DHT22;37579;51.074;17.004;2024-01-10T17:33:12;24.50;58.60
39751;DHT22;37579;51.074;17.004;2024-01-10T17:35:38;24.50;58.10
39751;DHT22;37579;51.074;17.004;2024-01-10T17:38:04;24.60;58.10
39751;DHT22;37579;51.074;17.004;2024-01-10T17:40:31;24.50;57.80
39751;DHT22;37579;51.074;17.004;2024-01-10T17:42:57;24.40;46.80
39751;DHT22;37579;51.074;17.004;2024-01-10T17:45:24;24.40;46.80
39751;DHT22;37579;51.074;17.004;2024-01-10T17:47:50;24.40;46.80
39751;DHT22;37579;51.074;17.004;2024-01-10T17:50:16;24.40;46.80
39751;DHT22;37579;51.074;17.004;2024-01-10T17:52:43;24.40;46.70
39751;DHT22;37579;51.074;17.004;2024-01-10T17:55:09;24.40;46.70
39751;DHT22;37579;51.074;17.004;2024-01-10T17:57:35;24.40;47.30
39751;DHT22;37579;51.074;17.004;2024-01-10T18:00:00;24.40;51.50
39751;DHT22;37579;51.074;17.004;2024-01-10T18:02:26;24.40;54.80
39751;DHT22;37579;51.074;17.004;2024-01-10T18:07:18;24.30;60.90
39751;DHT22;37579;51.074;17.004;2024-01-10T18:19:29;24.10;66.00
39751;DHT22;37579;51.074;17.004;2024-01-10T18:21:55;24.10;46.30
39751;DHT22;37579;51.074;17.004;2024-01-10T18:24:20;24.10;46.70
39751;DHT22;37579;51.074;17.004;2024-01-10T18:26:46;24.10;47.10
39751;DHT22;37579;51.074;17.004;2024-01-10T18:29:12;24.10;47.30
39751;DHT22;37579;51.074;17.004;2024-01-10T18:31:39;24.10;47.20
39751;DHT22;37579;51.074;17.004;2024-01-10T18:34:05;24.20;47.40
39751;DHT22;37579;51.074;17.004;2024-01-10T18:36:31;24.10;47.50
39751;DHT22;37579;51.074;17.004;2024-01-10T18:39:00;24.20;47.50
39751;DHT22;37579;51.074;17.004;2024-01-10T18:41:26;24.20;47.60
39751;DHT22;37579;51.074;17.004;2024-01-10T18:43:53;24.20;47.70
39751;DHT22;37579;51.074;17.004;2024-01-10T18:46:19;24.20;47.60
39751;DHT22;37579;51.074;17.004;2024-01-10T18:48:45;24.30;47.60
39751;DHT22;37579;51.074;17.004;2024-01-10T18:51:10;24.30;47.50
39751;DHT22;37579;51.074;17.004;2024-01-10T18:53:36;24.30;47.60
39751;DHT22;37579;51.074;17.004;2024-01-10T18:56:02;24.30;47.60
39751;DHT22;37579;51.074;17.004;2024-01-10T18:58:29;24.30;47.80
39751;DHT22;37579;51.074;17.004;2024-01-10T19:00:55;24.40;47.80
39751;DHT22;37579;51.074;17.004;2024-01-10T19:03:21;24.40;48.40
39751;DHT22;37579;51.074;17.004;2024-01-10T19:05:47;24.40;47.80
39751;DHT22;37579;51.074;17.004;2024-01-10T19:08:13;24.30;48.00
39751;DHT22;37579;51.074;17.004;2024-01-10T19:10:40;24.40;47.90
39751;DHT22;37579;51.074;17.004;2024-01-10T19:13:05;24.40;47.80
39751;DHT22;37579;51.074;17.004;2024-01-10T19:15:31;24.40;47.90
39751;DHT22;37579;51.074;17.004;2024-01-10T19:17:57;24.40;48.00
39751;DHT22;37579;51.074;17.004;2024-01-10T19:20:23;24.40;47.80
39751;DHT22;37579;51.074;17.004;2024-01-10T19:22:49;24.40;47.70
39751;DHT22;37579;51.074;17.004;2024-01-10T19:25:15;24.50;47.60
39751;DHT22;37579;51.074;17.004;2024-01-10T19:27:40;24.50;47.50
39751;DHT22;37579;51.074;17.004;2024-01-10T19:30:07;24.50;47.40
39751;DHT22;37579;51.074;17.004;2024-01-10T19:32:37;24.60;47.30
39751;DHT22;37579;51.074;17.004;2024-01-10T19:35:04;24.60;47.40
39751;DHT22;37579;51.074;17.004;2024-01-10T19:37:29;24.60;47.30
39751;DHT22;37579;51.074;17.004;2024-01-10T19:39:55;24.80;47.50